To NAV CANADA Home Page Login to a new session Search on AWWS site Feedback and Comments Disclaimer Vers la page française équivalente Tips FAQ What's new on the site To the Forecasts and Observations / NOTAM section To "File a Flight Plan" website Publications and other links Update of the User's profile FIC Telephone Numbers My Weather Data Folder Route Weather Data Regional Weather Data Local Weather Data To the Forecasts and Observations / NOTAM section
Request Generated 05/29/2015 at 22:09:34 UTC . Weather information available at that time is displayed.

METAR/TAF

FREDERICTON/FREDERICTON INTL/NB    (show WxCam)

METAR CYFC 292200Z AUTO VRB03KT 9SM CLR 24/13 A3022 RMK SLP234
DENSITY ALT 800FT=
METAR CYFC 292100Z AUTO 06005KT 040V110 9SM CLR 24/12 A3023 RMK
SLP237 DENSITY ALT 700FT=
METAR CYFC 292000Z AUTO 08005KT 030V120 9SM CLR 24/11 A3025 RMK
SLP243 DENSITY ALT 700FT=

TAF CYFC 291738Z 2918/3006 10007KT P6SM SKC
BECMG 2922/2924 18006KT
RMK FCST BASED ON AUTO OBS. NXT FCST BY 300000Z=
Your time UTC time
Weather data provided by Environment Canada and NAV CANADA